createdAt,value
2017-09-11T00:00:34.941Z,0
2017-09-11T00:01:35.627Z,0
2017-09-11T00:02:50.232Z,0
2017-09-11T00:03:35.315Z,0
2017-09-11T00:04:50.007Z,0
2017-09-11T00:05:35.662Z,0
2017-09-11T00:06:35.682Z,0
2017-09-11T00:07:35.701Z,0
2017-09-11T00:08:35.760Z,0
2017-09-11T00:09:35.143Z,0
2017-09-11T00:10:35.764Z,0
2017-09-11T00:11:35.816Z,0
2017-09-11T00:12:35.821Z,0
2017-09-11T00:13:35.217Z,0
2017-09-11T00:14:35.853Z,0
2017-09-11T00:15:50.502Z,0
2017-09-11T00:16:35.915Z,0
2017-09-11T00:17:35.924Z,0
2017-09-11T00:18:35.945Z,0
2017-09-11T00:19:35.955Z,0
2017-09-11T00:20:35.989Z,0
2017-09-11T00:21:35.706Z,0
2017-09-11T00:22:35.736Z,0
2017-09-11T00:23:35.742Z,0
2017-09-11T00:24:36.086Z,0
2017-09-11T00:25:35.484Z,0
2017-09-11T00:26:36.125Z,0
2017-09-11T00:27:36.134Z,0
2017-09-11T00:28:35.548Z,0
2017-09-11T00:29:36.200Z,0
2017-09-11T00:30:36.225Z,0
2017-09-11T00:31:35.927Z,0
2017-09-11T00:32:35.935Z,0
2017-09-11T00:33:35.968Z,0
2017-09-11T00:34:35.989Z,0
2017-09-11T00:35:35.997Z,0
2017-09-11T00:36:50.968Z,0
2017-09-11T00:37:36.048Z,0
2017-09-11T00:38:36.383Z,0
2017-09-11T00:39:36.091Z,0
2017-09-11T00:40:36.116Z,0
2017-09-11T00:41:51.055Z,0
2017-09-11T00:42:36.487Z,0
2017-09-11T00:43:36.189Z,0
2017-09-11T00:44:51.181Z,0
2017-09-11T00:45:36.534Z,0
2017-09-11T00:47:36.577Z,0
2017-09-11T00:48:36.279Z,0
2017-09-11T00:49:36.626Z,0
2017-09-11T00:50:51.255Z,0
2017-09-11T00:51:36.669Z,0
2017-09-11T00:52:51.301Z,0
2017-09-11T00:53:36.705Z,0
2017-09-11T00:54:51.339Z,0
2017-09-11T00:55:36.752Z,0
2017-09-11T00:56:36.756Z,0
2017-09-11T00:57:36.481Z,0
2017-09-11T00:58:36.500Z,0
2017-09-11T00:59:36.529Z,0
2017-09-11T01:00:36.564Z,0
2017-09-11T01:01:51.506Z,0
2017-09-11T01:03:36.611Z,0
2017-09-11T01:04:36.952Z,0
2017-09-11T01:05:36.659Z,0
2017-09-11T01:06:36.989Z,0
2017-09-11T01:08:51.029Z,0
2017-09-11T01:10:37.060Z,0
2017-09-11T01:11:36.484Z,0
2017-09-11T01:12:37.118Z,0
2017-09-11T01:13:37.127Z,0
2017-09-11T01:14:36.888Z,0
2017-09-11T01:15:37.181Z,0
2017-09-11T01:16:36.893Z,0
2017-09-11T01:17:36.604Z,0
2017-09-11T01:18:36.926Z,0
2017-09-11T01:19:36.958Z,0
2017-09-11T01:20:37.299Z,0
2017-09-11T01:21:51.928Z,0
2017-09-11T01:22:37.325Z,0
2017-09-11T01:23:37.353Z,0
2017-09-11T01:25:06.616Z,0
2017-09-11T01:25:37.414Z,0
2017-09-11T01:26:37.415Z,0
2017-09-11T01:27:37.144Z,0
2017-09-11T01:28:37.151Z,0
2017-09-11T01:29:52.106Z,0
2017-09-11T01:30:37.515Z,0
2017-09-11T01:31:37.540Z,0
2017-09-11T01:32:37.552Z,0
2017-09-11T01:33:37.560Z,0
2017-09-11T01:34:37.592Z,0
2017-09-11T01:35:37.609Z,0
2017-09-11T01:36:37.310Z,0
2017-09-11T01:37:37.657Z,0
2017-09-11T01:38:51.987Z,0
2017-09-11T01:39:52.311Z,0
2017-09-11T01:40:37.715Z,0
2017-09-11T01:41:37.732Z,0
2017-09-11T01:42:37.818Z,0
2017-09-11T01:43:37.784Z,0
2017-09-11T01:44:37.809Z,0
2017-09-11T01:45:37.847Z,0
2017-09-11T01:46:37.553Z,0
2017-09-11T01:47:37.874Z,0
2017-09-11T01:48:37.882Z,0
2017-09-11T01:49:37.903Z,0
2017-09-11T01:50:37.938Z,0
2017-09-11T01:51:52.569Z,0
2017-09-11T01:52:52.610Z,0
2017-09-11T01:53:37.699Z,0
2017-09-11T01:54:38.028Z,0
2017-09-11T01:55:38.044Z,0
2017-09-11T01:56:38.058Z,0
2017-09-11T01:57:37.774Z,0
2017-09-11T01:58:38.099Z,0
2017-09-11T01:59:38.132Z,0
2017-09-11T02:01:38.183Z,0
2017-09-11T02:02:38.190Z,0
2017-09-11T02:03:38.231Z,0
2017-09-11T02:04:38.234Z,0
2017-09-11T02:05:38.253Z,0
2017-09-11T02:06:38.335Z,0
2017-09-11T02:07:38.301Z,0
2017-09-11T02:08:52.633Z,0
2017-09-11T02:09:52.650Z,0
2017-09-11T02:10:38.051Z,0
2017-09-11T02:12:38.405Z,0
2017-09-11T02:13:38.430Z,0
2017-09-11T02:14:38.134Z,0
2017-09-11T02:15:38.479Z,0
2017-09-11T02:16:38.480Z,0
2017-09-11T02:17:38.205Z,0
2017-09-11T02:18:38.544Z,0
2017-09-11T02:19:38.556Z,0
2017-09-11T02:20:38.262Z,0
2017-09-11T02:21:38.602Z,0
2017-09-11T02:22:38.629Z,0
2017-09-11T02:23:38.636Z,0
2017-09-11T02:24:38.649Z,0
2017-09-11T02:25:38.672Z,0
2017-09-11T02:26:38.746Z,0
2017-09-11T02:28:07.649Z,0
2017-09-11T02:28:38.753Z,0
2017-09-11T02:29:38.460Z,0
2017-09-11T02:30:53.416Z,0
2017-09-11T02:31:38.840Z,0
2017-09-11T02:32:53.443Z,0
2017-09-11T02:33:38.856Z,0
2017-09-11T02:34:53.498Z,0
2017-09-11T02:35:38.591Z,0
2017-09-11T02:36:38.922Z,0
2017-09-11T02:37:38.633Z,0
2017-09-11T02:38:38.665Z,0
2017-09-11T02:39:38.686Z,0
2017-09-11T02:40:38.689Z,0
2017-09-11T02:41:38.717Z,0
2017-09-11T02:42:39.039Z,0
2017-09-11T02:43:53.691Z,0
2017-09-11T02:44:38.822Z,0
2017-09-11T02:45:38.818Z,0
2017-09-11T02:46:38.812Z,0
2017-09-11T02:47:39.159Z,0
2017-09-11T02:48:39.169Z,0
2017-09-11T02:49:53.188Z,0
2017-09-11T02:50:39.237Z,0
2017-09-11T02:51:39.255Z,0
2017-09-11T02:52:38.945Z,0
2017-09-11T02:53:53.592Z,0
2017-09-11T02:54:39.295Z,0
2017-09-11T02:55:39.006Z,0
2017-09-11T02:56:39.025Z,0
2017-09-11T02:57:39.370Z,0
2017-09-11T02:58:38.774Z,0
2017-09-11T03:00:39.122Z,0
2017-09-11T03:01:39.441Z,0
2017-09-11T03:02:39.476Z,0
2017-09-11T03:03:39.493Z,0
2017-09-11T03:04:39.525Z,0
2017-09-11T03:05:39.536Z,0
2017-09-11T03:06:39.551Z,0
2017-09-11T03:07:39.599Z,0
2017-09-11T03:08:53.910Z,0
2017-09-11T03:09:53.616Z,0
2017-09-11T03:10:39.645Z,0
2017-09-11T03:11:39.659Z,0
2017-09-11T03:12:39.700Z,0
2017-09-11T03:13:39.709Z,0
2017-09-11T03:14:54.351Z,0
2017-09-11T03:15:39.444Z,0
2017-09-11T03:16:39.801Z,0
2017-09-11T03:17:39.483Z,0
2017-09-11T03:18:54.440Z,0
2017-09-11T03:19:39.533Z,0
2017-09-11T03:20:39.863Z,0
2017-09-11T03:21:39.574Z,0
2017-09-11T03:22:39.652Z,0
2017-09-11T03:23:39.610Z,0
2017-09-11T03:24:39.679Z,0
2017-09-11T03:25:54.277Z,0
2017-09-11T03:26:39.992Z,0
2017-09-11T03:27:39.701Z,0
2017-09-11T03:28:40.085Z,0
2017-09-11T03:29:39.430Z,0
2017-09-11T03:30:40.068Z,0
2017-09-11T03:31:40.101Z,0
2017-09-11T03:32:54.739Z,0
2017-09-11T03:33:54.743Z,0
2017-09-11T03:34:54.763Z,0
2017-09-11T03:35:40.177Z,0
2017-09-11T03:36:40.197Z,0
2017-09-11T03:37:39.894Z,0
2017-09-11T03:38:40.248Z,0
2017-09-11T03:39:39.949Z,0
2017-09-11T03:40:40.302Z,0
2017-09-11T03:41:40.291Z,0
2017-09-11T03:42:39.713Z,0
2017-09-11T03:43:40.041Z,0
2017-09-11T03:44:40.374Z,0
2017-09-11T03:45:40.402Z,0
2017-09-11T03:46:55.026Z,0
2017-09-11T03:47:39.808Z,0
2017-09-11T03:48:40.435Z,0
2017-09-11T03:49:40.460Z,0
2017-09-11T03:50:55.102Z,0
2017-09-11T03:51:40.523Z,0
2017-09-11T03:52:40.236Z,0
2017-09-11T03:53:40.574Z,0
2017-09-11T03:54:40.591Z,0
2017-09-11T03:55:40.286Z,4
2017-09-11T03:56:40.627Z,4
2017-09-11T03:57:54.634Z,0
2017-09-11T03:58:55.278Z,0
2017-09-11T03:59:40.694Z,4
2017-09-11T04:00:40.688Z,4
2017-09-11T04:01:40.721Z,4
2017-09-11T04:02:55.072Z,8
2017-09-11T04:03:40.482Z,4
2017-09-11T04:04:40.800Z,4
2017-09-11T04:05:40.808Z,8
2017-09-11T04:06:40.832Z,8
2017-09-11T04:07:40.853Z,12
2017-09-11T04:08:40.871Z,12
2017-09-11T04:09:40.898Z,12
2017-09-11T04:10:55.537Z,20
2017-09-11T04:11:40.947Z,20
2017-09-11T04:12:40.648Z,24
2017-09-11T04:13:40.659Z,28
2017-09-11T04:14:41.002Z,36
2017-09-11T04:15:40.716Z,44
2017-09-11T04:16:41.059Z,48
2017-09-11T04:17:55.673Z,60
2017-09-11T04:18:55.399Z,72
2017-09-11T04:19:41.106Z,76
2017-09-11T04:20:41.177Z,92
2017-09-11T04:21:40.533Z,108
2017-09-11T04:22:41.177Z,128
2017-09-11T04:23:41.180Z,148
2017-09-11T04:24:41.216Z,168
2017-09-11T04:25:40.920Z,192
2017-09-11T04:26:41.265Z,216
2017-09-11T04:27:41.291Z,240
2017-09-11T04:28:40.981Z,268
2017-09-11T04:29:41.001Z,300
2017-09-11T04:30:41.034Z,332
2017-09-11T04:31:41.037Z,368
2017-09-11T04:32:41.377Z,420
2017-09-11T04:33:41.415Z,480
2017-09-11T04:34:56.038Z,560
2017-09-11T04:35:41.440Z,608
2017-09-11T04:36:41.457Z,680
2017-09-11T04:37:41.171Z,752
2017-09-11T04:38:41.523Z,824
2017-09-11T04:39:41.538Z,900
2017-09-11T04:40:41.557Z,976
2017-09-11T04:41:55.875Z,1076
2017-09-11T04:42:41.284Z,1132
2017-09-11T04:43:41.617Z,1212
2017-09-11T04:44:41.632Z,1296
2017-09-11T04:45:41.352Z,1388
2017-09-11T04:46:41.684Z,1484
2017-09-11T04:47:41.704Z,1580
2017-09-11T04:48:41.401Z,1680
2017-09-11T04:49:56.367Z,1796
2017-09-11T04:50:41.447Z,1868
2017-09-11T04:51:41.782Z,1964
2017-09-11T04:52:41.492Z,2052
2017-09-11T04:53:41.514Z,2136
2017-09-11T04:54:41.840Z,2212
2017-09-11T04:55:41.868Z,2288
2017-09-11T04:56:41.894Z,2360
2017-09-11T04:57:41.906Z,2424
2017-09-11T04:58:41.625Z,2488
2017-09-11T04:59:41.637Z,2548
2017-09-11T05:00:41.971Z,2608
2017-09-11T05:01:41.984Z,2668
2017-09-11T05:02:42.025Z,2736
2017-09-11T05:03:41.720Z,2804
2017-09-11T05:04:41.738Z,2868
2017-09-11T05:05:41.777Z,2948
2017-09-11T05:06:41.783Z,3024
2017-09-11T05:07:42.152Z,3072
2017-09-11T05:08:41.825Z,3160
2017-09-11T05:09:41.854Z,3332
2017-09-11T05:10:42.190Z,3368
2017-09-11T05:11:42.201Z,3712
2017-09-11T05:13:42.892Z,5980
2017-09-11T05:14:56.889Z,3592
2017-09-11T05:15:41.990Z,3640
2017-09-11T05:16:42.325Z,3744
2017-09-11T05:17:42.329Z,3872
2017-09-11T05:18:56.978Z,4144
2017-09-11T05:19:42.373Z,4084
2017-09-11T05:20:42.411Z,4200
2017-09-11T05:21:57.073Z,4860
2017-09-11T05:22:42.148Z,5040
2017-09-11T05:23:57.073Z,4876
2017-09-11T05:24:57.104Z,4492
2017-09-11T05:25:41.886Z,5432
2017-09-11T05:26:42.524Z,5368
2017-09-11T05:27:42.553Z,4664
2017-09-11T05:28:42.258Z,4444
2017-09-11T05:29:41.981Z,4496
2017-09-11T05:30:42.624Z,4548
2017-09-11T05:31:42.323Z,4624
2017-09-11T05:32:41.731Z,4712
2017-09-11T05:33:42.666Z,4748
2017-09-11T05:34:42.698Z,4760
2017-09-11T05:35:42.425Z,4832
2017-09-11T05:36:42.749Z,4964
2017-09-11T05:37:57.066Z,6048
2017-09-11T05:38:57.394Z,6108
2017-09-11T05:39:57.431Z,5248
2017-09-11T05:40:42.836Z,5256
2017-09-11T05:41:42.541Z,5496
2017-09-11T05:42:41.945Z,5696
2017-09-11T05:43:57.199Z,7196
2017-09-11T05:44:42.618Z,6000
2017-09-11T05:45:42.621Z,5732
2017-09-11T05:46:42.340Z,6376
2017-09-11T05:47:42.974Z,9268
2017-09-11T05:48:43.031Z,7480
2017-09-11T05:49:43.080Z,6332
2017-09-11T05:50:43.043Z,7144
2017-09-11T05:51:42.758Z,7876
2017-09-11T05:52:43.100Z,13500
2017-09-11T05:55:42.864Z,52256
2017-09-11T05:56:42.877Z,53824
2017-09-11T05:57:42.907Z,55456
2017-09-11T05:58:43.244Z,58464
2017-09-11T05:59:42.933Z,58464
2017-09-11T06:00:42.966Z,57728
2017-09-11T06:01:43.036Z,53600
2017-09-11T06:02:57.624Z,55680
2017-09-11T06:03:57.975Z,60000
2017-09-11T06:04:43.376Z,62432
2017-09-11T06:05:43.412Z,62240
2017-09-11T06:06:43.421Z,59488
2017-09-11T06:07:43.473Z,56800
2017-09-11T06:08:43.484Z,57024
2017-09-11T06:09:58.125Z,57952
2017-09-11T06:10:42.914Z,59392
2017-09-11T06:11:43.561Z,61824
2017-09-11T06:12:43.600Z,64416
2017-09-11T06:13:58.225Z,63680
2017-09-11T06:14:43.654Z,63680
2017-09-11T06:15:43.671Z,64000
2017-09-11T06:16:43.691Z,64096
2017-09-11T06:17:43.737Z,65792
2017-09-11T06:18:43.447Z,66752
2017-09-11T06:19:43.476Z,64160
2017-09-11T06:20:43.823Z,62720
2017-09-11T06:21:43.840Z,61568
2017-09-11T06:22:43.909Z,61984
2017-09-11T06:23:43.892Z,67872
2017-09-11T06:24:58.558Z,68960
2017-09-11T06:25:44.016Z,65920
2017-09-11T06:26:43.999Z,63264
2017-09-11T06:27:58.654Z,63008
2017-09-11T06:28:44.060Z,61920
2017-09-11T06:29:44.091Z,67008
2017-09-11T06:30:43.812Z,70080
2017-09-11T06:31:44.213Z,70720
2017-09-11T06:32:43.875Z,68448
2017-09-11T06:33:43.915Z,69344
2017-09-11T06:34:43.945Z,66240
2017-09-11T06:35:43.359Z,57472
2017-09-11T06:36:43.996Z,65152
2017-09-11T06:37:44.355Z,68736
2017-09-11T06:38:44.129Z,69792
2017-09-11T06:39:44.430Z,71264
2017-09-11T06:40:44.455Z,73376
2017-09-11T06:41:59.094Z,68096
2017-09-11T06:42:44.520Z,68896
2017-09-11T06:43:59.153Z,61216
2017-09-11T06:44:44.273Z,50560
2017-09-11T06:45:44.601Z,61728
2017-09-11T06:46:59.279Z,69312
2017-09-11T06:47:44.670Z,67968
2017-09-11T06:48:44.097Z,67328
2017-09-11T06:49:44.436Z,71616
2017-09-11T06:51:44.511Z,62432
2017-09-11T06:52:44.849Z,67872
2017-09-11T06:53:44.871Z,72448
2017-09-11T06:54:44.591Z,70976
2017-09-11T06:55:44.877Z,65152
2017-09-11T06:57:13.907Z,51904
2017-09-11T06:57:44.384Z,61664
2017-09-11T06:58:44.746Z,73952
2017-09-11T06:59:45.078Z,64320
2017-09-11T07:00:44.806Z,68096
2017-09-11T07:02:45.191Z,58528
2017-09-11T07:03:44.897Z,56416
2017-09-11T07:04:45.254Z,76128
2017-09-11T07:05:45.294Z,76736
2017-09-11T07:06:45.312Z,75232
2017-09-11T07:07:45.356Z,73856
2017-09-11T07:08:45.370Z,59136
2017-09-11T07:09:45.439Z,67712
2017-09-11T07:10:45.129Z,68960
2017-09-11T07:12:00.104Z,69728
2017-09-11T07:12:59.822Z,73312
2017-09-11T07:13:45.542Z,64736
2017-09-11T07:15:00.188Z,62176
2017-09-11T07:15:45.291Z,36736
2017-09-11T07:16:45.652Z,21504
2017-09-11T07:17:45.686Z,38176
2017-09-11T07:18:45.714Z,37216
2017-09-11T07:19:45.741Z,36160
2017-09-11T07:20:45.784Z,19520
2017-09-11T07:21:45.802Z,27488
2017-09-11T07:23:00.464Z,56960
2017-09-11T07:23:45.866Z,53248
2017-09-11T07:24:45.610Z,46976
2017-09-11T07:25:45.945Z,64288
2017-09-11T07:27:45.686Z,35424
2017-09-11T07:29:14.967Z,17664
2017-09-11T07:30:00.684Z,13776
2017-09-11T07:30:46.109Z,13804
2017-09-11T07:31:46.145Z,12596
2017-09-11T07:33:00.472Z,27776
2017-09-11T07:34:00.873Z,25440
2017-09-11T07:34:46.228Z,27616
2017-09-11T07:35:46.258Z,11372
2017-09-11T07:37:00.916Z,10432
2017-09-11T07:38:00.638Z,10440
2017-09-11T07:38:46.354Z,11948
2017-09-11T07:39:46.081Z,35232
2017-09-11T07:41:00.731Z,37024
2017-09-11T07:42:45.859Z,30784
2017-09-11T07:43:46.192Z,39872
2017-09-11T07:45:01.153Z,37504
2017-09-11T07:45:46.556Z,42528
2017-09-11T07:46:46.589Z,51744
2017-09-11T07:48:01.233Z,33856
2017-09-11T07:48:46.655Z,29216
2017-09-11T07:49:46.702Z,20480
2017-09-11T07:50:46.716Z,61152
2017-09-11T07:51:46.431Z,27232
2017-09-11T07:52:46.755Z,42464
2017-09-11T07:53:46.806Z,42400
2017-09-11T07:55:01.460Z,26208
2017-09-11T07:55:46.871Z,31456
2017-09-11T07:57:46.910Z,15444
2017-09-11T07:59:01.568Z,38880
2017-09-11T08:00:00.985Z,28512
2017-09-11T08:00:46.702Z,36672
2017-09-11T08:01:47.048Z,30464
2017-09-11T08:03:01.679Z,16864
2017-09-11T08:03:47.104Z,14580
2017-09-11T08:05:01.451Z,13976
2017-09-11T08:05:46.843Z,14128
2017-09-11T08:06:46.875Z,13212
2017-09-11T08:07:47.223Z,13280
2017-09-11T08:08:46.937Z,15228
2017-09-11T08:09:46.977Z,14892
2017-09-11T08:11:01.922Z,13968
2017-09-11T08:11:47.343Z,13268
2017-09-11T08:12:47.364Z,12368
2017-09-11T08:13:47.087Z,12012
2017-09-11T08:14:47.419Z,12772
2017-09-11T08:15:47.140Z,12764
2017-09-11T08:16:47.529Z,12240
2017-09-11T08:17:47.508Z,11728
2017-09-11T08:18:47.546Z,12152
2017-09-11T08:19:47.580Z,12076
2017-09-11T08:20:47.273Z,15008
2017-09-11T08:21:47.308Z,14456
2017-09-11T08:22:47.347Z,12168
2017-09-11T08:23:47.362Z,12424
2017-09-11T08:24:47.388Z,14244
2017-09-11T08:25:47.422Z,11956
2017-09-11T08:26:47.452Z,14028
2017-09-11T08:27:47.534Z,18304
2017-09-11T08:28:47.502Z,13436
2017-09-11T08:29:47.850Z,12860
2017-09-11T08:30:47.557Z,12772
2017-09-11T08:32:02.516Z,12000
2017-09-11T08:32:47.927Z,11024
2017-09-11T08:33:47.955Z,13296
2017-09-11T08:34:47.983Z,10836
2017-09-11T08:35:47.998Z,10520
2017-09-11T08:36:47.725Z,10856
2017-09-11T08:37:48.062Z,10464
2017-09-11T08:38:47.774Z,10796
2017-09-11T08:40:47.837Z,10544
2017-09-11T08:41:47.851Z,10484
2017-09-11T08:42:47.902Z,10520
2017-09-11T08:43:47.654Z,10464
2017-09-11T08:44:48.244Z,10436
2017-09-11T08:45:47.963Z,10392
2017-09-11T08:46:48.309Z,10268
2017-09-11T08:48:02.319Z,10336
2017-09-11T08:48:47.729Z,10468
2017-09-11T08:49:48.073Z,10080
2017-09-11T08:50:48.411Z,9988
2017-09-11T08:51:48.138Z,10024
2017-09-11T08:52:48.460Z,10316
2017-09-11T08:53:48.490Z,9916
2017-09-11T08:54:48.513Z,10336
2017-09-11T08:55:48.596Z,10032
2017-09-11T08:56:48.568Z,9696
2017-09-11T08:57:48.585Z,9548
2017-09-11T08:58:48.628Z,9388
2017-09-11T08:59:48.655Z,9168
2017-09-11T09:00:48.363Z,9024
2017-09-11T09:01:48.700Z,8860
2017-09-11T09:02:48.721Z,8724
2017-09-11T09:04:03.370Z,8552
2017-09-11T09:04:48.793Z,8652
2017-09-11T09:06:03.117Z,8408
2017-09-11T09:06:48.837Z,8408
2017-09-11T09:07:48.863Z,8464
2017-09-11T09:08:48.267Z,8644
2017-09-11T09:09:48.909Z,8676
2017-09-11T09:12:03.268Z,8776
2017-09-11T09:12:48.697Z,8800
2017-09-11T09:13:49.016Z,8752
2017-09-11T09:14:48.414Z,8836
2017-09-11T09:15:49.075Z,8920
2017-09-11T09:16:49.088Z,9056
2017-09-11T09:17:49.122Z,9156
2017-09-11T09:18:49.154Z,9276
2017-09-11T09:20:03.784Z,9604
2017-09-11T09:21:48.918Z,9864
2017-09-11T09:22:49.243Z,10032
2017-09-11T09:23:49.273Z,10216
2017-09-11T09:24:48.989Z,10376
2017-09-11T09:25:49.317Z,10588
2017-09-11T09:26:49.351Z,11436
2017-09-11T09:27:49.376Z,11248
2017-09-11T09:28:49.405Z,11152
2017-09-11T09:30:04.051Z,10884
2017-09-11T09:30:49.144Z,10888
2017-09-11T09:31:49.500Z,11164
2017-09-11T09:32:49.193Z,11252
2017-09-11T09:33:49.243Z,12472
2017-09-11T09:35:03.866Z,13408
2017-09-11T09:36:49.312Z,13552
2017-09-11T09:37:49.654Z,13092
2017-09-11T09:38:49.677Z,11692
2017-09-11T09:39:49.766Z,11320
2017-09-11T09:40:49.712Z,11600
2017-09-11T09:41:49.438Z,12776
2017-09-11T09:42:49.478Z,15528
2017-09-11T09:43:49.492Z,13932
2017-09-11T09:44:49.843Z,18240
2017-09-11T09:45:49.850Z,12488
2017-09-11T09:46:49.898Z,12928
2017-09-11T09:47:49.906Z,14936
2017-09-11T09:48:49.969Z,18496
2017-09-11T09:49:49.331Z,17216
2017-09-11T09:50:50.002Z,14148
2017-09-11T09:51:50.021Z,14204
2017-09-11T09:53:04.671Z,12740
2017-09-11T09:54:04.697Z,11072
2017-09-11T09:54:50.117Z,10176
2017-09-11T09:55:50.163Z,9524
2017-09-11T09:56:50.155Z,9660
2017-09-11T09:57:50.186Z,11732
2017-09-11T09:58:50.206Z,10796
2017-09-11T09:59:50.228Z,13656
2017-09-11T10:00:50.245Z,13532
2017-09-11T10:01:49.977Z,14908
2017-09-11T10:02:50.318Z,15360
2017-09-11T10:03:50.355Z,14868
2017-09-11T10:04:50.368Z,11780
2017-09-11T10:05:50.394Z,15488
2017-09-11T10:07:19.669Z,13980
2017-09-11T10:07:50.461Z,14064
2017-09-11T10:08:50.472Z,14104
2017-09-11T10:09:50.206Z,14972
2017-09-11T10:10:50.535Z,14232
2017-09-11T10:11:50.546Z,14536
2017-09-11T10:12:50.287Z,14168
2017-09-11T10:13:50.322Z,11904
2017-09-11T10:14:50.635Z,14072
2017-09-11T10:15:50.059Z,15448
2017-09-11T10:18:50.449Z,14760
2017-09-11T10:19:50.463Z,14792
2017-09-11T10:20:50.805Z,14856
2017-09-11T10:21:50.844Z,14244
2017-09-11T10:23:05.178Z,14928
2017-09-11T10:23:50.892Z,13644
2017-09-11T10:24:50.614Z,8200
2017-09-11T10:26:50.665Z,6840
2017-09-11T10:27:50.694Z,15172
2017-09-11T10:28:51.040Z,15308
2017-09-11T10:29:51.098Z,8584
2017-09-11T10:31:05.707Z,15916
2017-09-11T10:32:51.140Z,15808
2017-09-11T10:33:50.556Z,16576
2017-09-11T10:35:05.819Z,16492
2017-09-11T10:36:05.541Z,16652
2017-09-11T10:37:51.291Z,12732
2017-09-11T10:39:05.614Z,13544
2017-09-11T10:39:51.335Z,13116
2017-09-11T10:40:51.377Z,13552
2017-09-11T10:41:50.781Z,11744
2017-09-11T10:42:51.113Z,9936
2017-09-11T10:43:51.136Z,10268
2017-09-11T10:44:51.171Z,9464
2017-09-11T10:46:50.911Z,9896
2017-09-11T10:48:05.877Z,8624
2017-09-11T10:48:51.276Z,8636
2017-09-11T10:49:51.619Z,8804
2017-09-11T10:50:51.332Z,10228
2017-09-11T10:52:06.350Z,9516
2017-09-11T10:52:51.382Z,10032
2017-09-11T10:53:51.735Z,10332
2017-09-11T10:55:06.374Z,10520
2017-09-11T10:55:51.475Z,10280
2017-09-11T10:56:51.195Z,10304
2017-09-11T10:57:51.537Z,10708
2017-09-11T10:59:06.485Z,9928
2017-09-11T10:59:51.903Z,9208
2017-09-11T11:00:51.926Z,9604
2017-09-11T11:01:51.637Z,9512
2017-09-11T11:02:51.972Z,9544
2017-09-11T11:03:52.008Z,8716
2017-09-11T11:04:52.034Z,8160
2017-09-11T11:05:52.049Z,7728
2017-09-11T11:07:52.110Z,7624
2017-09-11T11:08:52.138Z,7700
2017-09-11T11:10:06.776Z,8096
2017-09-11T11:10:51.873Z,8228
2017-09-11T11:11:51.915Z,8236
2017-09-11T11:12:52.243Z,8416
2017-09-11T11:13:51.958Z,8708
2017-09-11T11:15:52.367Z,9008
2017-09-11T11:16:52.037Z,9112
2017-09-11T11:18:52.099Z,8980
2017-09-11T11:19:52.122Z,9260
2017-09-11T11:20:52.472Z,9100
2017-09-11T11:22:52.189Z,9808
2017-09-11T11:23:52.538Z,9752
2017-09-11T11:24:52.579Z,9840
2017-09-11T11:26:07.219Z,9568
2017-09-11T11:27:52.645Z,9368
2017-09-11T11:28:52.683Z,9120
2017-09-11T11:29:52.078Z,8892
2017-09-11T11:30:52.423Z,8784
2017-09-11T11:32:07.374Z,8812
2017-09-11T11:33:07.418Z,9036
2017-09-11T11:33:52.813Z,9200
2017-09-11T11:34:52.532Z,9400
2017-09-11T11:35:52.536Z,9596
2017-09-11T11:37:07.512Z,9672
2017-09-11T11:37:52.604Z,9760
2017-09-11T11:38:52.641Z,9684
2017-09-11T11:39:52.977Z,9296
2017-09-11T11:40:52.684Z,8920
2017-09-11T11:42:53.035Z,8692
2017-09-11T11:44:07.384Z,8752
2017-09-11T11:44:52.790Z,8416
2017-09-11T11:45:53.137Z,7984
2017-09-11T11:46:53.154Z,7492
2017-09-11T11:48:53.225Z,6572
2017-09-11T11:50:07.866Z,6236
2017-09-11T11:50:52.963Z,6188
2017-09-11T11:51:52.979Z,6748
2017-09-11T11:52:52.994Z,7328
2017-09-11T11:53:53.042Z,8768
2017-09-11T11:54:53.368Z,8604
2017-09-11T11:55:53.457Z,8548
2017-09-11T11:56:53.113Z,8288
2017-09-11T11:58:07.753Z,7744
2017-09-11T11:59:08.107Z,7900
2017-09-11T11:59:53.239Z,8020
2017-09-11T12:00:53.529Z,8540
2017-09-11T12:01:53.555Z,8820
2017-09-11T12:02:53.263Z,9096
2017-09-11T12:03:53.652Z,9304
2017-09-11T12:04:53.022Z,9140
2017-09-11T12:05:53.684Z,9008
2017-09-11T12:06:53.383Z,8676
2017-09-11T12:07:53.724Z,8380
2017-09-11T12:08:53.745Z,8280
2017-09-11T12:09:53.782Z,8384
2017-09-11T12:10:53.796Z,8528
2017-09-11T12:11:53.516Z,8584
2017-09-11T12:12:53.851Z,8696
2017-09-11T12:14:08.495Z,8924
2017-09-11T12:14:53.591Z,9096
2017-09-11T12:15:53.923Z,9312
2017-09-11T12:16:53.655Z,9432
2017-09-11T12:17:53.986Z,9396
2017-09-11T12:18:54.025Z,9012
2017-09-11T12:20:08.645Z,8724
2017-09-11T12:20:54.064Z,8712
2017-09-11T12:21:54.090Z,8828
2017-09-11T12:23:54.144Z,9144
2017-09-11T12:24:54.160Z,9072
2017-09-11T12:25:54.191Z,8800
2017-09-11T12:26:53.966Z,8480
2017-09-11T12:27:53.940Z,8140
2017-09-11T12:28:54.280Z,7828
2017-09-11T12:30:08.923Z,7560
2017-09-11T12:30:54.023Z,7452
2017-09-11T12:32:08.965Z,7392
2017-09-11T12:32:54.392Z,7404
2017-09-11T12:33:54.404Z,7396
2017-09-11T12:34:54.442Z,7448
2017-09-11T12:35:54.460Z,7448
2017-09-11T12:36:54.492Z,7528
2017-09-11T12:37:54.519Z,7540
2017-09-11T12:38:54.550Z,7600
2017-09-11T12:39:54.582Z,7680
2017-09-11T12:41:09.212Z,7752
2017-09-11T12:41:54.298Z,7816
2017-09-11T12:42:54.342Z,7972
2017-09-11T12:43:54.375Z,8132
2017-09-11T12:45:09.001Z,8288
2017-09-11T12:45:54.423Z,8368
2017-09-11T12:47:09.366Z,8392
2017-09-11T12:47:54.478Z,8392
2017-09-11T12:48:54.806Z,8396
2017-09-11T12:49:54.830Z,8348
2017-09-11T12:51:09.477Z,8260
2017-09-11T12:51:54.887Z,8224
2017-09-11T12:52:54.903Z,8264
2017-09-11T12:53:54.944Z,8384
2017-09-11T12:54:54.962Z,8328
2017-09-11T12:55:55.001Z,8124
2017-09-11T12:56:54.396Z,7928
2017-09-11T12:57:55.040Z,7760
2017-09-11T12:58:55.072Z,7708
2017-09-11T12:59:55.103Z,7508
2017-09-11T13:00:55.124Z,7476
2017-09-11T13:02:09.756Z,7324
2017-09-11T13:02:54.854Z,7172
2017-09-11T13:03:54.896Z,7036
2017-09-11T13:05:09.830Z,6672
2017-09-11T13:05:55.252Z,6600
2017-09-11T13:07:09.899Z,6732
2017-09-11T13:07:55.291Z,6828
2017-09-11T13:09:09.957Z,7056
2017-09-11T13:10:09.983Z,7128
2017-09-11T13:10:55.374Z,7032
2017-09-11T13:11:55.403Z,6884
2017-09-11T13:12:55.133Z,7312
2017-09-11T13:13:55.463Z,7920
2017-09-11T13:14:55.485Z,8356
2017-09-11T13:15:55.503Z,8312
2017-09-11T13:17:10.170Z,8488
2017-09-11T13:17:55.254Z,8612
2017-09-11T13:18:55.601Z,8604
2017-09-11T13:19:55.623Z,8432
2017-09-11T13:20:55.642Z,8284
2017-09-11T13:21:55.366Z,8180
2017-09-11T13:22:55.703Z,8164
2017-09-11T13:23:55.717Z,8092
2017-09-11T13:25:10.367Z,8016
2017-09-11T13:26:10.397Z,8552
2017-09-11T13:27:10.428Z,8316
2017-09-11T13:27:55.842Z,8300
2017-09-11T13:29:55.257Z,8604
2017-09-11T13:30:55.611Z,8700
2017-09-11T13:31:55.925Z,9116
2017-09-11T13:33:25.204Z,8580
2017-09-11T13:34:10.593Z,8440
2017-09-11T13:35:10.639Z,7996
2017-09-11T13:36:10.645Z,7576
2017-09-11T13:36:55.751Z,7292
2017-09-11T13:37:56.094Z,6912
2017-09-11T13:38:55.806Z,6452
2017-09-11T13:39:55.837Z,5888
2017-09-11T13:41:10.467Z,5704
2017-09-11T13:41:56.197Z,5904
2017-09-11T13:42:55.905Z,6324
2017-09-11T13:44:10.859Z,6320
2017-09-11T13:44:55.965Z,7332
2017-09-11T13:45:55.987Z,8512
2017-09-11T13:46:56.364Z,9800
2017-09-11T13:47:56.363Z,8872
2017-09-11T13:49:10.677Z,9368
2017-09-11T13:49:56.400Z,10084
2017-09-11T13:50:56.434Z,11052
2017-09-11T13:51:56.462Z,10716
2017-09-11T13:52:56.170Z,10288
2017-09-11T13:53:56.525Z,7840
2017-09-11T13:55:56.563Z,6728
2017-09-11T13:56:56.589Z,6088
2017-09-11T13:58:11.229Z,5820
2017-09-11T13:58:56.331Z,6208
2017-09-11T13:59:56.655Z,6144
2017-09-11T14:00:56.698Z,5960
2017-09-11T14:01:56.716Z,5456
2017-09-11T14:02:56.761Z,5040
2017-09-11T14:03:56.466Z,4652
2017-09-11T14:05:11.107Z,4448
2017-09-11T14:05:56.857Z,4500
2017-09-11T14:06:56.854Z,4660
2017-09-11T14:07:56.863Z,5008
2017-09-11T14:08:56.901Z,5008
2017-09-11T14:09:56.915Z,5316
2017-09-11T14:11:11.574Z,5424